Al Kazimiyah, Iraq
Current Conditions -  °F | °C
As of 3:30 PM on Saturday 25 Oct 2014 (Local Time) from ORBI Reporting Station
Clear Clear  
Wind Chill: 86°   Ceiling: Unl
Heat Index: 86°   Visibility: 6mi
Dew Point: 45°   Wind: 10mph
Humidity: 23%   Direction: 340°NNW
Pressure: 29.91"   Gusts: NA
Location:  33.31°N, 44.19°E
Report Text: ORBI 251230Z 34009KT CAVOK 30/07 Q1013
Loading
Personal Weather Stations






























Interactive Weather Map
Tropical Storm Tracking
New forecast layout! Learn more

10-Day Weather Forecast

Advertisements
Track Severe Weather on mobile